Time;durP1;ratioP1;P1;durP2;ratioP2;P2;SDS_P1;SDS_P2;PMS_P1;PMS_P2;Temp;Humidity;BMP_temperature;BMP_pressure;BME280_temperature;BME280_humidity;BME280_pressure;Samples;Min_cycle;Max_cycle;Signal;HPM_P1;HPM_P2
2022/02/06 00:08:23;;;;;;;4.97;1.90;;;;;;;;;;6005780;22;20493;-77
2022/02/06 00:14:26;;;;;;;2.80;1.80;;;;;;;;;;5006509;28;21047;-78
2022/02/06 00:20:48;;;;;;;2.77;1.80;;;;;;;;;;5018991;28;20250;-78
2022/02/06 00:26:16;;;;;;;4.50;1.92;;;;;;;;;;5052821;28;20542;-77
2022/02/06 01:41:57;;;;;;;4.73;2.00;;;;;;;;;;4948555;28;20446;-77
2022/02/06 01:44:45;;;;;;;6.40;2.17;;;;;;;;;;4961782;28;20464;-76
2022/02/06 02:02:06;;;;;;;;;;;;;;;;;;;;;
2022/02/06 02:44:26;;;;;;;5.80;2.20;;;;;;;;;;4956599;28;20806;-78
2022/02/06 02:46:43;;;;;;;3.93;1.93;;;;;;;;;;4974900;28;20479;-79
2022/02/06 02:49:15;;;;;;;3.60;2.43;;;;;;;;;;4972623;28;20555;-77
2022/02/06 02:51:56;;;;;;;4.87;2.10;;;;;;;;;;4971537;28;20492;-77
2022/02/06 02:54:27;;;;;;;4.90;1.80;;;;;;;;;;4972943;28;20499;-78
2022/02/06 02:57:04;;;;;;;2.90;1.90;;;;;;;;;;4976496;28;20821;-76
2022/02/06 02:59:43;;;;;;;5.70;2.00;;;;;;;;;;4985769;28;20505;-79
2022/02/06 03:02:10;;;;;;;6.67;2.37;;;;;;;;;;4976267;28;20443;-77
2022/02/06 03:04:38;;;;;;;4.83;2.10;;;;;;;;;;4969327;28;20649;-77
2022/02/06 03:07:06;;;;;;;4.60;2.10;;;;;;;;;;4971905;28;20445;-78
2022/02/06 03:15:38;;;;;;;8.30;2.30;;;;;;;;;;5048805;28;20511;-78
2022/02/06 03:18:35;;;;;;;3.93;2.40;;;;;;;;;;5062143;28;20442;-76
2022/02/06 03:21:21;;;;;;;3.43;2.00;;;;;;;;;;5056775;28;20475;-77
2022/02/06 03:27:24;;;;;;;;;;;;;;;;;;;;;
2022/02/06 03:39:16;;;;;;;;;;;;;;;;;;;;;
2022/02/06 03:42:05;;;;;;;3.90;2.10;;;;;;;;;;4963188;28;20437;-75
2022/02/06 03:44:39;;;;;;;2.17;1.83;;;;;;;;;;5033799;28;20549;-75
2022/02/06 03:47:11;;;;;;;4.77;2.20;;;;;;;;;;5076517;28;21021;-76
2022/02/06 03:49:48;;;;;;;5.50;2.10;;;;;;;;;;5091648;28;20855;-76
2022/02/06 03:52:17;;;;;;;4.80;1.90;;;;;;;;;;5095079;28;20454;-76
2022/02/06 03:54:46;;;;;;;4.80;2.03;;;;;;;;;;5102707;28;20443;-77
2022/02/06 03:57:13;;;;;;;3.50;1.70;;;;;;;;;;5105151;28;20443;-74
2022/02/06 03:59:40;;;;;;;2.00;1.70;;;;;;;;;;5106217;28;20454;-76
2022/02/06 04:02:09;;;;;;;3.63;1.73;;;;;;;;;;5094550;28;20802;-79
2022/02/06 04:04:36;;;;;;;4.20;1.60;;;;;;;;;;5085527;28;20197;-75
2022/02/06 04:07:07;;;;;;;4.15;1.55;;;;;;;;;;5086707;28;20658;-74
2022/02/06 04:09:39;;;;;;;3.37;2.10;;;;;;;;;;5088071;28;20687;-79
2022/02/06 04:12:11;;;;;;;9.20;2.10;;;;;;;;;;5085530;28;20459;-76
2022/02/06 04:14:52;;;;;;;3.13;1.50;;;;;;;;;;5100954;28;20485;-75
2022/02/06 04:17:22;;;;;;;4.70;2.00;;;;;;;;;;5103227;28;20188;-75
2022/02/06 04:19:51;;;;;;;2.60;1.57;;;;;;;;;;5103772;28;20941;-77
2022/02/06 04:22:18;;;;;;;2.83;1.67;;;;;;;;;;5104145;28;20478;-78
2022/02/06 04:24:45;;;;;;;6.82;2.35;;;;;;;;;;5098756;28;20230;-76
2022/02/06 04:27:14;;;;;;;9.38;2.25;;;;;;;;;;5085997;28;20197;-77
2022/02/06 04:29:41;;;;;;;3.40;1.60;;;;;;;;;;5084723;28;20690;-78
2022/02/06 04:32:09;;;;;;;4.38;2.30;;;;;;;;;;5104081;28;20201;-75
2022/02/06 04:34:36;;;;;;;3.67;1.98;;;;;;;;;;5107480;28;20264;-77
2022/02/06 04:37:11;;;;;;;5.43;1.90;;;;;;;;;;5090390;28;20224;-78
2022/02/06 04:42:30;;;;;;;2.08;1.63;;;;;;;;;;5070040;28;20847;-78
2022/02/06 04:45:27;;;;;;;2.13;1.73;;;;;;;;;;5071992;28;20229;-78
2022/02/06 04:48:16;;;;;;;2.38;1.50;;;;;;;;;;5056588;28;20436;-78
2022/02/06 05:15:22;;;;;;;4.00;1.97;;;;;;;;;;5128252;27;20219;-77
2022/02/06 05:23:27;;;;;;;4.50;1.87;;;;;;;;;;5105107;28;20503;-79
2022/02/06 05:26:22;;;;;;;1.80;1.70;;;;;;;;;;5105091;28;20907;-77
2022/02/06 05:28:55;;;;;;;1.90;1.33;;;;;;;;;;5114334;28;20220;-78
2022/02/06 05:31:34;;;;;;;5.25;1.95;;;;;;;;;;5126664;28;20617;-76
2022/02/06 05:34:01;;;;;;;4.10;1.90;;;;;;;;;;5129119;27;20668;-76
2022/02/06 05:36:28;;;;;;;3.30;1.70;;;;;;;;;;5130956;27;20453;-77
2022/02/06 05:38:55;;;;;;;2.33;1.40;;;;;;;;;;5131546;27;20808;-81
2022/02/06 05:41:23;;;;;;;3.45;1.65;;;;;;;;;;5126046;27;20215;-78
2022/02/06 05:43:51;;;;;;;1.90;1.40;;;;;;;;;;5126736;27;20196;-76
2022/02/06 05:46:19;;;;;;;4.53;1.65;;;;;;;;;;5123843;28;20192;-79
2022/02/06 05:48:46;;;;;;;3.28;1.40;;;;;;;;;;5126072;27;20655;-77
2022/02/06 05:51:14;;;;;;;1.45;1.35;;;;;;;;;;5125633;27;20569;-77
2022/02/06 05:53:42;;;;;;;3.03;1.90;;;;;;;;;;5116256;27;21491;-78
2022/02/06 05:56:09;;;;;;;1.45;1.27;;;;;;;;;;5130872;27;20572;-77
2022/02/06 05:58:36;;;;;;;1.50;1.30;;;;;;;;;;5129124;27;20535;-77
2022/02/06 06:01:04;;;;;;;1.52;1.30;;;;;;;;;;5124317;27;20220;-77
2022/02/06 06:03:32;;;;;;;2.17;1.20;;;;;;;;;;5124433;27;20196;-79
2022/02/06 06:05:59;;;;;;;3.80;1.45;;;;;;;;;;5122130;28;20430;-76
2022/02/06 06:08:26;;;;;;;1.80;1.58;;;;;;;;;;5110587;28;20548;-80
2022/02/06 06:10:53;;;;;;;2.72;1.15;;;;;;;;;;5114117;27;20223;-78
2022/02/06 06:13:20;;;;;;;3.65;1.40;;;;;;;;;;5117459;27;20199;-78
2022/02/06 06:15:48;;;;;;;3.97;1.52;;;;;;;;;;5107668;27;20881;-77
2022/02/06 06:18:16;;;;;;;3.85;2.00;;;;;;;;;;5106697;28;20185;-76
2022/02/06 06:20:45;;;;;;;3.40;1.50;;;;;;;;;;5110699;28;20253;-76
2022/02/06 06:23:13;;;;;;;1.60;1.02;;;;;;;;;;5109938;28;20535;-77
2022/02/06 06:25:41;;;;;;;2.47;1.35;;;;;;;;;;5105872;28;20197;-77
2022/02/06 06:28:09;;;;;;;2.50;1.13;;;;;;;;;;5109649;28;20224;-83
2022/02/06 06:30:36;;;;;;;2.93;1.53;;;;;;;;;;5111826;27;20597;-80
2022/02/06 06:33:04;;;;;;;1.25;1.13;;;;;;;;;;5115446;27;20830;-81
2022/02/06 06:35:32;;;;;;;1.38;1.10;;;;;;;;;;5113426;27;20212;-77
2022/02/06 06:38:00;;;;;;;1.70;1.20;;;;;;;;;;5111429;28;20564;-78
2022/02/06 06:40:28;;;;;;;3.00;1.35;;;;;;;;;;5109713;28;20611;-79
2022/02/06 06:42:55;;;;;;;1.45;1.20;;;;;;;;;;5092891;28;20200;-78
2022/02/06 06:45:23;;;;;;;5.03;1.70;;;;;;;;;;5104389;28;20204;-75
2022/02/06 06:47:52;;;;;;;1.35;1.05;;;;;;;;;;5113884;28;20212;-76
2022/02/06 06:50:19;;;;;;;1.30;1.20;;;;;;;;;;5110885;28;20262;-80
2022/02/06 06:52:48;;;;;;;2.75;1.20;;;;;;;;;;5117948;27;20240;-79
2022/02/06 06:55:19;;;;;;;2.60;1.17;;;;;;;;;;5115356;27;20240;-79
2022/02/06 06:57:53;;;;;;;3.30;1.45;;;;;;;;;;5115012;27;20213;-76
2022/02/06 07:00:33;;;;;;;1.75;1.20;;;;;;;;;;5111938;28;20212;-77
2022/02/06 07:03:00;;;;;;;3.42;1.38;;;;;;;;;;5106770;28;20630;-76
2022/02/06 07:05:27;;;;;;;2.83;1.25;;;;;;;;;;5108775;28;20777;-76
2022/02/06 07:07:56;;;;;;;2.38;1.15;;;;;;;;;;5107787;27;20197;-76
2022/02/06 07:10:23;;;;;;;2.80;1.30;;;;;;;;;;5115376;27;20217;-76
2022/02/06 07:12:50;;;;;;;1.58;1.15;;;;;;;;;;5092192;28;20204;-76
2022/02/06 07:15:18;;;;;;;3.45;1.35;;;;;;;;;;5105251;27;20776;-75
2022/02/06 07:17:45;;;;;;;1.30;1.20;;;;;;;;;;5118116;27;20189;-76
2022/02/06 07:20:13;;;;;;;2.13;1.10;;;;;;;;;;5097080;27;20665;-78
2022/02/06 07:22:40;;;;;;;1.40;1.10;;;;;;;;;;5096825;28;20196;-77
2022/02/06 07:25:09;;;;;;;2.90;1.13;;;;;;;;;;5108584;28;20204;-76
2022/02/06 07:27:39;;;;;;;1.53;1.20;;;;;;;;;;5111085;28;20200;-76
2022/02/06 07:30:07;;;;;;;1.33;1.10;;;;;;;;;;5095788;27;20506;-77
2022/02/06 07:32:37;;;;;;;1.50;1.15;;;;;;;;;;5108860;27;20207;-76
2022/02/06 07:35:05;;;;;;;2.13;1.13;;;;;;;;;;5116646;27;20290;-76
2022/02/06 07:37:32;;;;;;;2.15;1.15;;;;;;;;;;5115052;27;20444;-76
2022/02/06 07:39:59;;;;;;;1.50;1.33;;;;;;;;;;5108926;28;20266;-77
2022/02/06 07:42:27;;;;;;;1.55;1.10;;;;;;;;;;5094834;28;20440;-76
2022/02/06 07:44:55;;;;;;;2.00;1.25;;;;;;;;;;5090862;28;20201;-76
2022/02/06 07:47:23;;;;;;;2.20;1.30;;;;;;;;;;5089285;28;20604;-76
2022/02/06 07:49:52;;;;;;;1.00;0.90;;;;;;;;;;5108152;27;20574;-77
2022/02/06 07:52:20;;;;;;;1.00;0.80;;;;;;;;;;5114072;27;20454;-77
2022/02/06 07:54:47;;;;;;;1.87;1.03;;;;;;;;;;5117529;27;20457;-77
2022/02/06 07:57:14;;;;;;;2.20;1.10;;;;;;;;;;5090027;28;20455;-77
2022/02/06 07:59:43;;;;;;;2.17;1.20;;;;;;;;;;5092412;27;20782;-77
2022/02/06 08:02:10;;;;;;;1.17;0.95;;;;;;;;;;5106020;28;20439;-76
2022/02/06 08:04:38;;;;;;;4.55;1.52;;;;;;;;;;5089393;28;20204;-77
2022/02/06 08:07:05;;;;;;;2.13;1.30;;;;;;;;;;5094761;28;20200;-77
2022/02/06 08:09:47;;;;;;;2.17;0.80;;;;;;;;;;5114989;27;20462;-77
2022/02/06 08:12:15;;;;;;;3.90;1.07;;;;;;;;;;5115367;27;20307;-77
2022/02/06 08:14:52;;;;;;;1.53;1.00;;;;;;;;;;5093254;28;20818;-77
2022/02/06 08:17:20;;;;;;;1.20;1.10;;;;;;;;;;5094480;27;20525;-77
2022/02/06 08:19:48;;;;;;;4.80;1.10;;;;;;;;;;5109867;27;20474;-77
2022/02/06 08:22:15;;;;;;;1.10;0.90;;;;;;;;;;5093780;28;20466;-76
2022/02/06 08:24:43;;;;;;;1.30;0.90;;;;;;;;;;5097035;28;20467;-76
2022/02/06 08:27:10;;;;;;;2.40;2.20;;;;;;;;;;5107320;27;20882;-76
2022/02/06 08:29:40;;;;;;;1.37;0.97;;;;;;;;;;5115500;27;20832;-76
2022/02/06 08:32:09;;;;;;;1.10;0.90;;;;;;;;;;5106262;27;20462;-78
2022/02/06 08:34:37;;;;;;;1.30;1.20;;;;;;;;;;5095695;28;20449;-77
2022/02/06 08:37:04;;;;;;;1.00;0.90;;;;;;;;;;5105426;28;20208;-78
2022/02/06 08:39:32;;;;;;;1.60;1.30;;;;;;;;;;5095566;28;20818;-77
2022/02/06 08:41:59;;;;;;;1.00;0.90;;;;;;;;;;5097267;28;20477;-76
2022/02/06 08:44:28;;;;;;;1.00;0.80;;;;;;;;;;5109447;28;20485;-77
2022/02/06 08:46:55;;;;;;;1.00;0.90;;;;;;;;;;5110535;28;20465;-76
2022/02/06 08:49:24;;;;;;;1.17;0.90;;;;;;;;;;5115640;27;20447;-77
2022/02/06 08:51:52;;;;;;;1.00;0.90;;;;;;;;;;5117763;27;20829;-76
2022/02/06 08:54:21;;;;;;;1.70;1.57;;;;;;;;;;5102657;28;20475;-77
2022/02/06 08:56:48;;;;;;;1.27;0.90;;;;;;;;;;5109237;28;20474;-78
2022/02/06 08:59:15;;;;;;;1.37;1.07;;;;;;;;;;5109185;28;20461;-77
2022/02/06 09:01:42;;;;;;;1.37;0.90;;;;;;;;;;5093866;28;20455;-77
2022/02/06 09:04:09;;;;;;;1.40;1.20;;;;;;;;;;5103763;28;20470;-76
2022/02/06 09:06:38;;;;;;;1.17;0.80;;;;;;;;;;5112300;28;20430;-77
2022/02/06 09:11:31;;;;;;;1.23;0.80;;;;;;;;;;5116603;28;20456;-78
2022/02/06 09:13:59;;;;;;;1.70;0.97;;;;;;;;;;5118583;28;20192;-78
2022/02/06 09:16:27;;;;;;;1.00;0.80;;;;;;;;;;5108403;28;20562;-76
2022/02/06 09:18:54;;;;;;;1.20;1.00;;;;;;;;;;5106977;28;20566;-75
2022/02/06 09:21:23;;;;;;;1.60;1.00;;;;;;;;;;5111100;28;20494;-76
2022/02/06 09:23:51;;;;;;;1.10;0.90;;;;;;;;;;5130297;28;21124;-76
2022/02/06 09:26:21;;;;;;;0.83;0.73;;;;;;;;;;5121241;28;20462;-77
2022/02/06 09:28:48;;;;;;;1.43;0.90;;;;;;;;;;5109630;28;20488;-77
2022/02/06 09:31:21;;;;;;;0.90;0.80;;;;;;;;;;5109529;28;20979;-76
2022/02/06 09:36:14;;;;;;;1.47;1.10;;;;;;;;;;5117934;27;20567;-76
2022/02/06 09:38:41;;;;;;;2.00;1.60;;;;;;;;;;5108434;28;20459;-76
2022/02/06 09:41:11;;;;;;;3.40;2.00;;;;;;;;;;5105156;28;20471;-76
2022/02/06 09:43:38;;;;;;;1.80;1.50;;;;;;;;;;5093870;28;20810;-78
2022/02/06 09:46:06;;;;;;;2.30;1.63;;;;;;;;;;5129414;27;20437;-77
2022/02/06 09:48:35;;;;;;;3.60;1.90;;;;;;;;;;5128488;27;20938;-76
2022/02/06 09:51:02;;;;;;;2.57;1.53;;;;;;;;;;5112788;28;20466;-77
2022/02/06 09:53:30;;;;;;;3.00;1.60;;;;;;;;;;5112030;28;20958;-77
2022/02/06 09:56:01;;;;;;;1.93;1.20;;;;;;;;;;5118041;27;20481;-76
2022/02/06 09:58:56;;;;;;;4.15;1.40;;;;;;;;;;5121576;27;20441;-76
2022/02/06 10:01:23;;;;;;;1.93;1.33;;;;;;;;;;5092037;28;20275;-76
2022/02/06 10:03:52;;;;;;;1.70;1.30;;;;;;;;;;5105500;28;20435;-76
2022/02/06 10:06:21;;;;;;;1.47;1.00;;;;;;;;;;5113280;28;20434;-77
2022/02/06 10:08:51;;;;;;;3.40;1.33;;;;;;;;;;5114326;28;20445;-76
2022/02/06 10:11:18;;;;;;;3.13;1.30;;;;;;;;;;5112253;28;20512;-77
2022/02/06 10:13:47;;;;;;;2.77;1.50;;;;;;;;;;5113158;28;20820;-76
2022/02/06 10:16:15;;;;;;;3.33;1.70;;;;;;;;;;5094825;27;20474;-76
2022/02/06 10:18:43;;;;;;;2.80;1.80;;;;;;;;;;5119414;27;20869;-76
2022/02/06 10:21:14;;;;;;;1.70;1.40;;;;;;;;;;5116629;27;20474;-76
2022/02/06 10:23:47;;;;;;;1.87;1.33;;;;;;;;;;5110787;28;20484;-77
2022/02/06 10:26:24;;;;;;;2.50;1.40;;;;;;;;;;5113494;28;20439;-77
2022/02/06 10:29:09;;;;;;;3.33;1.60;;;;;;;;;;5112303;28;20811;-77
2022/02/06 10:31:40;;;;;;;2.13;1.58;;;;;;;;;;5111425;28;20509;-76
2022/02/06 10:34:19;;;;;;;3.30;2.03;;;;;;;;;;5100216;28;20194;-76
2022/02/06 10:36:47;;;;;;;2.80;1.87;;;;;;;;;;5112721;28;20477;-76
2022/02/06 10:39:17;;;;;;;2.47;1.83;;;;;;;;;;5116862;27;20445;-76
2022/02/06 10:41:45;;;;;;;3.73;1.90;;;;;;;;;;5119315;27;20437;-77
2022/02/06 10:44:14;;;;;;;2.63;1.50;;;;;;;;;;5125717;27;20465;-76
2022/02/06 10:46:45;;;;;;;2.70;1.53;;;;;;;;;;5133862;27;20446;-76
2022/02/06 10:49:13;;;;;;;1.73;1.50;;;;;;;;;;5104211;28;20450;-75
2022/02/06 10:51:42;;;;;;;1.43;1.07;;;;;;;;;;5109725;28;20470;-76
2022/02/06 10:54:10;;;;;;;2.23;1.50;;;;;;;;;;5097719;28;20503;-76
2022/02/06 10:56:40;;;;;;;1.60;1.17;;;;;;;;;;5111445;27;20482;-76
2022/02/06 10:59:08;;;;;;;1.40;1.13;;;;;;;;;;5119673;27;20465;-77
2022/02/06 11:01:41;;;;;;;1.55;1.10;;;;;;;;;;5111921;27;20499;-77
2022/02/06 11:04:14;;;;;;;1.90;1.27;;;;;;;;;;5110209;28;20192;-76
2022/02/06 11:06:47;;;;;;;3.65;1.70;;;;;;;;;;5111107;28;20464;-75
2022/02/06 11:09:29;;;;;;;2.20;1.63;;;;;;;;;;5112158;28;20193;-77
2022/02/06 11:11:59;;;;;;;2.43;1.33;;;;;;;;;;5107472;27;20453;-77
2022/02/06 11:14:28;;;;;;;1.85;1.20;;;;;;;;;;5108470;28;20504;-77
2022/02/06 11:16:57;;;;;;;2.30;1.35;;;;;;;;;;5116818;27;20224;-78
2022/02/06 11:19:25;;;;;;;1.60;1.20;;;;;;;;;;5118602;27;20247;-77
2022/02/06 11:22:07;;;;;;;1.20;1.10;;;;;;;;;;5102148;27;20443;-77
2022/02/06 11:24:37;;;;;;;1.92;1.23;;;;;;;;;;5103361;28;20203;-77
2022/02/06 11:27:05;;;;;;;2.63;1.60;;;;;;;;;;5090026;28;20202;-77
2022/02/06 11:29:33;;;;;;;1.90;1.20;;;;;;;;;;5106786;28;20751;-77
2022/02/06 11:32:01;;;;;;;3.05;1.50;;;;;;;;;;5099790;27;20524;-77
2022/02/06 11:34:29;;;;;;;1.75;1.48;;;;;;;;;;5114866;27;20189;-76
2022/02/06 11:45:26;;;;;;;2.70;1.35;;;;;;;;;;5111559;28;20188;-73
2022/02/06 11:47:58;;;;;;;2.35;1.50;;;;;;;;;;5110434;28;20287;-74
2022/02/06 11:50:26;;;;;;;3.70;2.30;;;;;;;;;;5093741;28;20549;-78
2022/02/06 11:52:55;;;;;;;1.92;1.20;;;;;;;;;;5118826;27;20200;-75
2022/02/06 11:55:37;;;;;;;2.38;1.38;;;;;;;;;;5118841;27;20234;-78
2022/02/06 11:58:19;;;;;;;2.20;1.58;;;;;;;;;;5091127;27;20227;-77
2022/02/06 12:00:46;;;;;;;2.38;1.35;;;;;;;;;;5090448;28;20303;-77
2022/02/06 12:03:15;;;;;;;2.55;1.25;;;;;;;;;;5090138;28;20200;-76
2022/02/06 12:05:57;;;;;;;1.77;1.20;;;;;;;;;;5090518;28;20685;-76
2022/02/06 12:08:24;;;;;;;2.38;1.00;;;;;;;;;;5090889;28;20201;-78
2022/02/06 12:11:06;;;;;;;2.85;1.30;;;;;;;;;;5116942;27;20595;-79
2022/02/06 12:13:34;;;;;;;2.50;1.20;;;;;;;;;;5117191;27;20188;-77
2022/02/06 12:16:03;;;;;;;4.50;1.25;;;;;;;;;;5113812;27;20446;-75
2022/02/06 12:18:32;;;;;;;4.65;1.30;;;;;;;;;;5090605;28;20194;-74
2022/02/06 12:21:10;;;;;;;2.40;1.38;;;;;;;;;;5088210;28;20206;-74
2022/02/06 12:23:38;;;;;;;1.50;1.15;;;;;;;;;;5109507;28;20200;-78
2022/02/06 12:26:26;;;;;;;2.00;1.25;;;;;;;;;;5099560;28;20208;-77
2022/02/06 12:28:54;;;;;;;2.38;1.10;;;;;;;;;;5092157;28;20189;-79
2022/02/06 12:31:27;;;;;;;3.90;2.10;;;;;;;;;;5095511;27;20213;-75
2022/02/06 12:34:10;;;;;;;3.37;0.90;;;;;;;;;;5118394;27;20279;-75
2022/02/06 12:39:19;;;;;;;1.20;0.83;;;;;;;;;;5114244;27;20207;-75
2022/02/06 12:41:46;;;;;;;3.03;1.20;;;;;;;;;;5093471;28;20478;-77
2022/02/06 12:44:15;;;;;;;3.47;1.30;;;;;;;;;;5109039;28;20199;-78
2022/02/06 12:46:43;;;;;;;2.03;0.90;;;;;;;;;;5110849;28;20189;-77
2022/02/06 12:49:11;;;;;;;3.33;0.90;;;;;;;;;;5107087;28;20465;-76
2022/02/06 12:51:38;;;;;;;2.35;1.00;;;;;;;;;;5100440;28;20197;-76
2022/02/06 12:54:08;;;;;;;4.47;1.20;;;;;;;;;;5100779;28;20203;-77
2022/02/06 12:56:35;;;;;;;1.10;1.00;;;;;;;;;;5116022;27;20208;-77
2022/02/06 12:59:02;;;;;;;1.30;0.90;;;;;;;;;;5105936;28;20581;-76
2022/02/06 13:01:40;;;;;;;3.47;1.03;;;;;;;;;;5087850;28;20474;-73
2022/02/06 13:04:08;;;;;;;0.90;0.70;;;;;;;;;;5106353;28;20497;-77
2022/02/06 13:06:38;;;;;;;1.17;0.87;;;;;;;;;;5109765;28;20954;-76
2022/02/06 13:09:10;;;;;;;1.93;1.00;;;;;;;;;;5103337;28;20475;-76
2022/02/06 13:11:46;;;;;;;1.93;1.07;;;;;;;;;;5112302;28;20457;-75
2022/02/06 13:14:20;;;;;;;2.00;1.20;;;;;;;;;;5118220;28;20731;-74
2022/02/06 13:16:55;;;;;;;1.30;0.90;;;;;;;;;;5111181;28;20481;-75
2022/02/06 13:22:17;;;;;;;1.60;1.00;;;;;;;;;;5113321;28;20510;-74
2022/02/06 13:25:00;;;;;;;1.33;0.80;;;;;;;;;;5113084;28;20908;-75
2022/02/06 13:27:43;;;;;;;1.00;0.93;;;;;;;;;;5105920;27;20971;-77
2022/02/06 13:30:21;;;;;;;1.53;1.30;;;;;;;;;;5122327;27;20861;-76
2022/02/06 13:33:02;;;;;;;2.60;1.60;;;;;;;;;;5118127;27;20529;-76
2022/02/06 13:35:37;;;;;;;2.80;1.60;;;;;;;;;;5113419;28;20434;-75
2022/02/06 13:38:09;;;;;;;2.13;1.43;;;;;;;;;;5114043;28;20580;-75
2022/02/06 13:40:45;;;;;;;1.40;1.27;;;;;;;;;;5110672;28;20469;-77
2022/02/06 13:43:17;;;;;;;1.50;0.97;;;;;;;;;;5113984;28;20958;-76
2022/02/06 13:45:45;;;;;;;2.27;1.20;;;;;;;;;;5117388;27;20437;-74
2022/02/06 13:48:14;;;;;;;1.20;1.10;;;;;;;;;;5121158;27;20431;-76
2022/02/06 13:50:47;;;;;;;2.10;1.43;;;;;;;;;;5122402;27;20465;-75
2022/02/06 13:53:17;;;;;;;1.40;1.23;;;;;;;;;;5134182;27;20449;-75
2022/02/06 13:55:45;;;;;;;2.00;1.10;;;;;;;;;;5122715;27;20488;-74
2022/02/06 13:58:13;;;;;;;2.53;1.10;;;;;;;;;;5113285;28;20231;-75
2022/02/06 14:00:53;;;;;;;1.38;1.17;;;;;;;;;;5106833;28;20470;-81
2022/02/06 14:03:20;;;;;;;1.80;1.25;;;;;;;;;;5114818;27;20193;-74
2022/02/06 14:05:49;;;;;;;3.20;1.38;;;;;;;;;;5121667;27;20196;-75
2022/02/06 14:08:20;;;;;;;1.60;1.30;;;;;;;;;;5118102;27;20602;-75
2022/02/06 14:11:02;;;;;;;2.22;1.52;;;;;;;;;;5109289;28;20216;-73
2022/02/06 14:13:29;;;;;;;2.50;1.05;;;;;;;;;;5109563;28;20224;-73
2022/02/06 14:16:04;;;;;;;3.90;1.95;;;;;;;;;;5113044;28;20203;-73
2022/02/06 14:18:32;;;;;;;1.77;1.60;;;;;;;;;;5116037;27;20215;-73
2022/02/06 14:20:59;;;;;;;2.35;1.42;;;;;;;;;;5108309;28;20223;-76
2022/02/06 14:23:28;;;;;;;1.58;1.35;;;;;;;;;;5114135;28;20197;-75
2022/02/06 14:26:10;;;;;;;2.25;1.50;;;;;;;;;;5114939;27;20200;-75
2022/02/06 14:28:46;;;;;;;1.48;1.30;;;;;;;;;;5118640;27;20199;-73
2022/02/06 14:31:22;;;;;;;2.05;1.55;;;;;;;;;;5123878;27;20222;-75
2022/02/06 14:33:49;;;;;;;1.60;1.30;;;;;;;;;;5133808;27;20195;-74
2022/02/06 14:36:22;;;;;;;2.35;1.73;;;;;;;;;;5099000;27;20578;-74
2022/02/06 14:38:57;;;;;;;3.05;2.15;;;;;;;;;;5113187;28;20216;-74
2022/02/06 14:41:33;;;;;;;2.60;2.38;;;;;;;;;;5109973;28;20220;-78
2022/02/06 14:44:01;;;;;;;3.72;2.60;;;;;;;;;;5113002;28;20196;-74
2022/02/06 14:46:29;;;;;;;2.75;1.90;;;;;;;;;;5092112;28;20292;-75
2022/02/06 14:48:57;;;;;;;3.10;2.00;;;;;;;;;;5101840;27;20570;-75
2022/02/06 14:51:25;;;;;;;2.55;1.40;;;;;;;;;;5120461;27;20547;-76
2022/02/06 14:53:59;;;;;;;2.55;2.30;;;;;;;;;;5107526;27;20197;-77
2022/02/06 14:56:26;;;;;;;1.90;1.27;;;;;;;;;;5091797;28;20200;-74
2022/02/06 14:58:53;;;;;;;5.00;1.67;;;;;;;;;;5090930;28;20216;-74
2022/02/06 15:01:21;;;;;;;4.30;1.90;;;;;;;;;;5092700;28;20225;-75
2022/02/06 15:03:48;;;;;;;4.20;2.80;;;;;;;;;;5103781;28;20208;-75
2022/02/06 15:06:15;;;;;;;2.97;1.80;;;;;;;;;;5096265;28;20665;-75
2022/02/06 15:08:42;;;;;;;3.13;2.45;;;;;;;;;;5119505;27;20645;-75
2022/02/06 15:11:11;;;;;;;3.35;2.22;;;;;;;;;;5119361;27;20587;-76
2022/02/06 15:13:38;;;;;;;4.95;1.60;;;;;;;;;;5096114;28;20201;-75
2022/02/06 15:16:09;;;;;;;3.40;2.03;;;;;;;;;;5110033;28;20207;-75
2022/02/06 15:18:38;;;;;;;3.47;1.58;;;;;;;;;;5111292;28;20238;-75
2022/02/06 15:21:06;;;;;;;2.53;1.95;;;;;;;;;;5111389;28;20220;-80
2022/02/06 15:23:34;;;;;;;1.52;1.42;;;;;;;;;;5110573;27;20199;-77
2022/02/06 15:26:01;;;;;;;2.13;1.60;;;;;;;;;;5113245;27;20184;-75
2022/02/06 15:28:29;;;;;;;2.63;1.80;;;;;;;;;;5121483;27;20195;-75
2022/02/06 15:30:56;;;;;;;2.25;1.83;;;;;;;;;;5131577;27;20307;-75
2022/02/06 15:33:24;;;;;;;2.63;1.80;;;;;;;;;;5131409;27;20815;-75
2022/02/06 15:35:51;;;;;;;5.97;2.08;;;;;;;;;;5114544;27;20553;-76
2022/02/06 15:38:21;;;;;;;6.30;3.65;;;;;;;;;;5110025;28;20209;-78
2022/02/06 15:40:49;;;;;;;4.85;2.72;;;;;;;;;;5110007;28;20618;-74
2022/02/06 15:43:16;;;;;;;3.28;2.10;;;;;;;;;;5115608;27;20196;-75
2022/02/06 15:45:44;;;;;;;2.88;2.20;;;;;;;;;;5118056;27;20204;-75
2022/02/06 15:48:12;;;;;;;3.00;2.25;;;;;;;;;;5110820;27;20199;-79
2022/02/06 15:50:39;;;;;;;4.03;1.80;;;;;;;;;;5111889;28;20215;-74
2022/02/06 15:53:07;;;;;;;3.67;1.95;;;;;;;;;;5096006;28;20201;-73
2022/02/06 15:55:34;;;;;;;2.17;1.98;;;;;;;;;;5096355;28;20223;-74
2022/02/06 15:58:01;;;;;;;2.92;1.63;;;;;;;;;;5106321;27;20685;-76
2022/02/06 16:00:28;;;;;;;2.38;1.48;;;;;;;;;;5116521;27;20222;-77
2022/02/06 16:02:57;;;;;;;6.25;2.08;;;;;;;;;;5118066;27;20207;-77
2022/02/06 16:05:24;;;;;;;4.72;2.15;;;;;;;;;;5115892;27;20201;-76
2022/02/06 16:07:51;;;;;;;4.65;2.55;;;;;;;;;;5097900;28;20267;-75
2022/02/06 16:10:20;;;;;;;2.35;1.80;;;;;;;;;;5105204;28;20220;-75
2022/02/06 16:12:47;;;;;;;3.05;1.83;;;;;;;;;;5103930;28;20196;-74
2022/02/06 16:15:15;;;;;;;2.95;1.75;;;;;;;;;;5105085;28;20295;-74
2022/02/06 16:17:42;;;;;;;3.03;1.75;;;;;;;;;;5116107;27;20217;-74
2022/02/06 16:20:13;;;;;;;5.50;1.50;;;;;;;;;;5118175;27;20232;-76
2022/02/06 16:22:40;;;;;;;2.65;1.70;;;;;;;;;;5109073;28;20581;-75
2022/02/06 16:25:08;;;;;;;3.90;1.77;;;;;;;;;;5110735;28;20199;-75
2022/02/06 16:27:35;;;;;;;4.10;1.90;;;;;;;;;;5109643;28;20198;-75
2022/02/06 16:30:02;;;;;;;3.65;2.20;;;;;;;;;;5105497;28;20216;-76
2022/02/06 16:32:29;;;;;;;7.05;2.40;;;;;;;;;;5109689;28;20192;-76
2022/02/06 16:34:57;;;;;;;5.38;2.03;;;;;;;;;;5117393;27;20203;-75
2022/02/06 16:37:25;;;;;;;2.25;1.35;;;;;;;;;;5126894;27;20741;-77
2022/02/06 16:39:52;;;;;;;2.85;1.50;;;;;;;;;;5117107;27;20214;-76
2022/02/06 16:42:20;;;;;;;2.50;1.83;;;;;;;;;;5116566;27;20196;-76
2022/02/06 16:44:48;;;;;;;4.05;2.20;;;;;;;;;;5130519;27;20192;-76
2022/02/06 16:47:18;;;;;;;7.78;2.90;;;;;;;;;;5118326;27;20197;-75
2022/02/06 16:49:45;;;;;;;5.07;3.25;;;;;;;;;;5111002;28;20224;-75
2022/02/06 16:52:12;;;;;;;8.82;4.57;;;;;;;;;;5111566;28;20649;-75
2022/02/06 16:54:41;;;;;;;6.70;3.92;;;;;;;;;;5101730;28;20581;-74
2022/02/06 16:57:09;;;;;;;7.38;4.20;;;;;;;;;;5093230;28;20201;-75
2022/02/06 16:59:36;;;;;;;7.40;4.78;;;;;;;;;;5092350;28;20224;-75
2022/02/06 17:02:04;;;;;;;3.92;3.33;;;;;;;;;;5114174;28;20559;-75
2022/02/06 17:04:31;;;;;;;4.40;2.58;;;;;;;;;;5118186;28;20222;-74
2022/02/06 17:06:59;;;;;;;3.50;1.85;;;;;;;;;;5109933;27;20196;-77
2022/02/06 17:09:26;;;;;;;5.55;2.40;;;;;;;;;;5108075;28;20196;-75
2022/02/06 17:11:55;;;;;;;2.95;2.25;;;;;;;;;;5108393;28;20209;-75
2022/02/06 17:14:23;;;;;;;4.03;2.83;;;;;;;;;;5090683;28;20608;-75
2022/02/06 17:16:50;;;;;;;5.25;3.78;;;;;;;;;;5095279;28;20224;-75
2022/02/06 17:19:18;;;;;;;5.38;3.25;;;;;;;;;;5115169;28;20222;-74
2022/02/06 17:21:46;;;;;;;8.90;3.15;;;;;;;;;;5118244;27;20275;-74
2022/02/06 17:24:13;;;;;;;11.80;5.40;;;;;;;;;;5105952;28;20566;-76
2022/02/06 17:26:40;;;;;;;5.75;5.20;;;;;;;;;;5103348;28;20673;-78
2022/02/06 17:29:09;;;;;;;6.65;4.43;;;;;;;;;;5091340;28;20208;-77
2022/02/06 17:31:36;;;;;;;9.80;6.65;;;;;;;;;;5108019;28;20216;-78
2022/02/06 17:34:03;;;;;;;6.45;4.60;;;;;;;;;;5113262;28;20872;-76
2022/02/06 17:36:31;;;;;;;6.70;2.30;;;;;;;;;;5112548;27;20188;-75
2022/02/06 17:38:58;;;;;;;2.88;2.25;;;;;;;;;;5117614;28;20313;-76
2022/02/06 17:41:25;;;;;;;3.88;2.50;;;;;;;;;;5124188;28;20231;-74
2022/02/06 17:43:52;;;;;;;4.88;3.13;;;;;;;;;;5126837;27;20674;-75
2022/02/06 17:46:21;;;;;;;7.05;3.80;;;;;;;;;;5089054;28;20328;-75
2022/02/06 17:48:49;;;;;;;5.43;3.95;;;;;;;;;;5090070;28;20251;-74
2022/02/06 17:51:17;;;;;;;8.32;4.10;;;;;;;;;;5110261;28;20220;-75
2022/02/06 17:53:44;;;;;;;3.85;3.00;;;;;;;;;;5108348;28;20216;-74
2022/02/06 17:56:12;;;;;;;5.05;2.55;;;;;;;;;;5115127;27;20236;-75
2022/02/06 17:58:39;;;;;;;4.20;2.85;;;;;;;;;;5113430;27;20304;-76
2022/02/06 18:01:06;;;;;;;4.60;2.20;;;;;;;;;;5130250;28;20215;-74
2022/02/06 18:03:35;;;;;;;9.60;4.28;;;;;;;;;;5132964;27;20192;-76
2022/02/06 18:06:02;;;;;;;6.97;3.60;;;;;;;;;;5133372;27;20290;-75
2022/02/06 18:08:31;;;;;;;13.55;6.70;;;;;;;;;;5124909;27;20533;-77
2022/02/06 18:10:59;;;;;;;10.35;6.53;;;;;;;;;;5108071;27;20573;-76
2022/02/06 18:13:27;;;;;;;7.45;5.10;;;;;;;;;;5121207;27;20198;-77
2022/02/06 18:15:54;;;;;;;12.10;8.52;;;;;;;;;;5117559;27;20193;-75
2022/02/06 18:18:21;;;;;;;12.00;8.73;;;;;;;;;;5095849;28;20309;-77
2022/02/06 18:20:51;;;;;;;8.68;5.25;;;;;;;;;;5096178;28;20209;-74
2022/02/06 18:23:18;;;;;;;4.97;3.90;;;;;;;;;;5100096;27;20812;-74
2022/02/06 18:25:45;;;;;;;17.20;13.13;;;;;;;;;;5114256;28;20201;-74
2022/02/06 18:28:13;;;;;;;8.35;4.95;;;;;;;;;;5114611;27;20208;-74
2022/02/06 18:30:40;;;;;;;5.03;3.45;;;;;;;;;;5120833;27;20230;-77
2022/02/06 18:33:07;;;;;;;8.98;4.07;;;;;;;;;;5116604;27;20196;-76
2022/02/06 18:35:34;;;;;;;10.85;6.13;;;;;;;;;;5111007;28;20193;-73
2022/02/06 18:38:03;;;;;;;11.32;7.70;;;;;;;;;;5126582;27;20671;-74